Terminal Aerodrome Forecast
Issued by NWS

Home | Current Version | Previous Version | Text Only | Print | Product List | Glossary On
Versions: 1 2 3 4 5 6 7 8 9 10 11 12
000
FTUS45 KABQ 250530
TAFTCC
TAF
KTCC 250530Z 2506/2606 VRB05KT P6SM FEW120
     FM252100 13011KT P6SM VCSH BKN080
     FM252300 12011KT P6SM VCTS BKN070CB OVC120
     FM260200 13008KT P6SM -SHRA BKN080 OVC140
     FM260500 05005KT P6SM VCSH BKN100=

USA.gov is the U.S. government's official web portal to all federal, state and local government web resources and services.